Radiosonde details



Informationen :

Serial : V3010002
Type : Vaisala RS41-SGP
Date of production : 24.07.2023
Frequency : 403.000MHz
Launchsite : Galeao
Nearest town : Araruama, BR (0.8km)

Altitude (Max) : 17914m at 2026-09-06 01:01:28
Speed (Max) : 159km/h at altitude 12615m

Average speed : 85km/h
Average ascent rate : 5m/s
Average descent rate : 0m/s
Ascent rate (Max) : 9.2m/s
Descent rate (Max): 2.1m/s

First frame :
PU1XMG-16 at 2026-09-06 00:02:49 at altitude 667m (OG: 616m)
Last frame :
PU1XMG-16 at 2026-09-06 01:01:28 at altitude 17914m (OG: 17852m)

Flighttime : 58m39s
Ascent time : 58m39s
Descent time : 0s
Uptime : -
Killtimer : -

Distance (Straight line distance): 92km

Distance (Route):


Frames : 383


Measurement :

Temperature : -69.8°C
Humidity : 10.1%
Pressure : 80.1hPa


Vertical profile (SkewT) :


Elevation profile :



Receiving stations :


Receiver Frames First received Last received
PU1XMG-16 383 2026-09-06 00:02:49 2026-09-06 01:01:28

Share per receiver :



All frames :


Receiver Date Latitude Longitude Direction Speed Altitude Climb Temperature Humidity Pressure Voltage Killtimer Uptime BKT XDATA
PU1XMG-162026-09-06 01:01:28-22.86736-42.34868127°46km/h17914m5.0m/s-69.8°C10.1%80.1hPa0V00:00:0000:00:0000:00:00
PU1XMG-162026-09-06 00:53:11-22.86215-42.45242108°82km/h15762m4.3m/s-71.4°C12.9%115.7hPa0V00:00:0000:00:0000:00:00
PU1XMG-162026-09-06 00:52:50-22.86138-42.4570597°84km/h15664m5.3m/s-70.7°C12.2%117.6hPa0V00:00:0000:00:0000:00:00
PU1XMG-162026-09-06 00:41:34-22.87962-42.6798782°157km/h12664m3.9m/s-54.3°C15.6%191.1hPa0V00:00:0000:00:0000:00:00
PU1XMG-162026-09-06 00:41:21-22.88016-42.6855284°157km/h12615m3.0m/s-54.1°C19.8%192.6hPa0V00:00:0000:00:0000:00:00
PU1XMG-162026-09-06 00:40:19-22.88043-42.7122096°153km/h12352m5.2m/s-53.5°C45.8%200.6hPa0V00:00:0000:00:0000:00:00
PU1XMG-162026-09-06 00:40:01-22.87964-42.7196999°155km/h12282m4.8m/s-53.3°C57.8%202.8hPa0V00:00:0000:00:0000:00:00
PU1XMG-162026-09-06 00:39:54-22.87925-42.72211103°150km/h12257m3.7m/s-53.4°C64.7%203.6hPa0V00:00:0000:00:0000:00:00
PU1XMG-162026-09-06 00:39:50-22.87890-42.72413101°150km/h12236m5.6m/s-53.4°C68.7%204.3hPa0V00:00:0000:00:0000:00:00
PU1XMG-162026-09-06 00:39:44-22.87853-42.72650100°144km/h12212m4.1m/s-53.3°C72.8%205.1hPa0V00:00:0000:00:0000:00:00
PU1XMG-162026-09-06 00:39:38-22.87823-42.72888100°150km/h12187m5.0m/s-53.3°C75.3%205.8hPa0V00:00:0000:00:0000:00:00
PU1XMG-162026-09-06 00:39:30-22.87784-42.7316198°139km/h12159m4.6m/s-53.0°C77.0%206.7hPa0V00:00:0000:00:0000:00:00
PU1XMG-162026-09-06 00:39:24-22.87748-42.73434101°142km/h12131m4.2m/s-52.8°C77.1%207.6hPa0V00:00:0000:00:0000:00:00
PU1XMG-162026-09-06 00:39:18-22.87706-42.73660100°142km/h12107m4.2m/s-52.5°C77.2%208.4hPa0V00:00:0000:00:0000:00:00
PU1XMG-162026-09-06 00:39:12-22.87689-42.7389498°144km/h12080m2.1m/s-52.3°C80.7%209.3hPa0V00:00:0000:00:0000:00:00
PU1XMG-162026-09-06 00:39:06-22.87645-42.74127103°146km/h12056m4.4m/s-52.1°C77.8%210.1hPa0V00:00:0000:00:0000:00:00
PU1XMG-162026-09-06 00:38:57-22.87606-42.74478100°141km/h12017m3.7m/s-51.7°C76.4%211.3hPa0V00:00:0000:00:0000:00:00
PU1XMG-162026-09-06 00:38:48-22.87560-42.7479399°142km/h11985m3.8m/s-51.4°C79.2%212.4hPa0V00:00:0000:00:0000:00:00
PU1XMG-162026-09-06 00:38:44-22.87534-42.74981101°139km/h11965m3.9m/s-51.2°C79.8%213.1hPa0V00:00:0000:00:0000:00:00
PU1XMG-162026-09-06 00:38:36-22.87505-42.7528796°141km/h11932m3.1m/s-51.0°C80.1%214.1hPa0V00:00:0000:00:0000:00:00
PU1XMG-162026-09-06 00:38:31-22.87478-42.75483101°142km/h11907m2.5m/s-50.8°C79.4%214.9hPa0V00:00:0000:00:0000:00:00
PU1XMG-162026-09-06 00:38:03-22.87330-42.76574100°141km/h11789m3.9m/s-50.0°C81.1%218.8hPa0V00:00:0000:00:0000:00:00
PU1XMG-162026-09-06 00:37:54-22.87287-42.7692497°142km/h11750m5.2m/s-49.6°C78.2%220.1hPa0V00:00:0000:00:0000:00:00
PU1XMG-162026-09-06 00:37:49-22.87265-42.7711499°139km/h11727m4.0m/s-49.5°C76.6%220.9hPa0V00:00:0000:00:0000:00:00
PU1XMG-162026-09-06 00:36:57-22.87037-42.7907496°141km/h11499m5.1m/s-47.6°C80.4%228.7hPa0V00:00:0000:00:0000:00:00
PU1XMG-162026-09-06 00:36:51-22.87004-42.7934298°135km/h11465m3.7m/s-47.3°C78.7%229.9hPa0V00:00:0000:00:0000:00:00
PU1XMG-162026-09-06 00:36:45-22.86979-42.79571100°144km/h11433m4.6m/s-47.0°C77.2%231.0hPa0V00:00:0000:00:0000:00:00
PU1XMG-162026-09-06 00:36:39-22.86944-42.7980799°141km/h11406m5.3m/s-46.8°C78.0%231.9hPa0V00:00:0000:00:0000:00:00
PU1XMG-162026-09-06 00:36:32-22.86915-42.8002798°139km/h11378m4.2m/s-46.5°C77.1%232.9hPa0V00:00:0000:00:0000:00:00
PU1XMG-162026-09-06 00:36:28-22.86899-42.8021597°131km/h11353m5.1m/s-46.3°C74.5%233.7hPa0V00:00:0000:00:0000:00:00
PU1XMG-162026-09-06 00:36:22-22.86876-42.8043798°148km/h11324m4.6m/s-46.0°C71.6%234.7hPa0V00:00:0000:00:0000:00:00
PU1XMG-162026-09-06 00:36:16-22.86850-42.8063299°137km/h11302m4.8m/s-45.8°C72.2%235.5hPa0V00:00:0000:00:0000:00:00
PU1XMG-162026-09-06 00:36:12-22.86828-42.8082096°142km/h11280m4.7m/s-45.6°C70.9%236.3hPa0V00:00:0000:00:0000:00:00
PU1XMG-162026-09-06 00:36:07-22.86815-42.8100896°137km/h11256m4.8m/s-45.4°C71.3%237.2hPa0V00:00:0000:00:0000:00:00
PU1XMG-162026-09-06 00:36:01-22.86790-42.81244100°148km/h11228m5.3m/s-45.1°C68.5%238.2hPa0V00:00:0000:00:0000:00:00
PU1XMG-162026-09-06 00:35:55-22.86750-42.81437103°142km/h11206m5.7m/s-44.9°C69.3%239.0hPa0V00:00:0000:00:0000:00:00
PU1XMG-162026-09-06 00:35:50-22.86726-42.8166498°141km/h11175m6.3m/s-44.6°C69.4%240.1hPa0V00:00:0000:00:0000:00:00
PU1XMG-162026-09-06 00:35:41-22.86677-42.8200498°137km/h11123m4.6m/s-44.1°C76.3%241.9hPa0V00:00:0000:00:0000:00:00
PU1XMG-162026-09-06 00:35:32-22.86622-42.82326100°142km/h11071m7.5m/s-43.6°C71.9%243.8hPa0V00:00:0000:00:0000:00:00
PU1XMG-162026-09-06 00:35:16-22.86526-42.82924100°142km/h10997m4.6m/s-42.9°C74.1%246.6hPa0V00:00:0000:00:0000:00:00
PU1XMG-162026-09-06 00:35:10-22.86488-42.83143102°128km/h10968m6.2m/s-42.7°C70.9%247.5hPa0V00:00:0000:00:0000:00:00
PU1XMG-162026-09-06 00:35:05-22.86465-42.8332597°141km/h10946m4.3m/s-42.5°C72.9%248.4hPa0V00:00:0000:00:0000:00:00
PU1XMG-162026-09-06 00:34:59-22.86433-42.83550101°141km/h10920m5.9m/s-42.3°C74.2%249.3hPa0V00:00:0000:00:0000:00:00
PU1XMG-162026-09-06 00:34:54-22.86410-42.8373898°142km/h10891m4.8m/s-42.0°C73.7%250.4hPa0V00:00:0000:00:0000:00:00
PU1XMG-162026-09-06 00:34:47-22.86363-42.83968107°150km/h10853m7.4m/s-41.7°C71.4%251.8hPa0V00:00:0000:00:0000:00:00
PU1XMG-162026-09-06 00:34:42-22.86315-42.84211100°146km/h10822m5.3m/s-41.4°C71.0%253.0hPa0V00:00:0000:00:0000:00:00
PU1XMG-162026-09-06 00:34:37-22.86274-42.84392107°133km/h10793m6.4m/s-41.1°C68.5%254.0hPa0V00:00:0000:00:0000:00:00
PU1XMG-162026-09-06 00:34:32-22.86229-42.84566106°130km/h10766m5.4m/s-40.9°C67.6%255.0hPa0V00:00:0000:00:0000:00:00
PU1XMG-162026-09-06 00:34:25-22.86183-42.84777101°142km/h10738m5.6m/s-40.7°C68.8%256.1hPa0V00:00:0000:00:0000:00:00
PU1XMG-162026-09-06 00:34:20-22.86152-42.84974101°150km/h10709m5.2m/s-40.4°C67.2%257.2hPa0V00:00:0000:00:0000:00:00
PU1XMG-162026-09-06 00:34:07-22.86038-42.85506110°139km/h10627m4.8m/s-39.7°C63.8%260.2hPa0V00:00:0000:00:0000:00:00
PU1XMG-162026-09-06 00:34:01-22.85990-42.85689102°139km/h10606m4.7m/s-39.5°C65.4%261.1hPa0V00:00:0000:00:0000:00:00
PU1XMG-162026-09-06 00:33:56-22.85955-42.85920100°142km/h10581m4.0m/s-39.3°C64.4%262.1hPa0V00:00:0000:00:0000:00:00
PU1XMG-162026-09-06 00:33:50-22.85906-42.86130108°135km/h10557m3.5m/s-39.1°C64.2%263.0hPa0V00:00:0000:00:0000:00:00
PU1XMG-162026-09-06 00:33:43-22.85860-42.86354101°131km/h10531m4.9m/s-38.9°C63.5%264.0hPa0V00:00:0000:00:0000:00:00
PU1XMG-162026-09-06 00:33:37-22.85821-42.86562105°135km/h10506m3.0m/s-38.7°C63.0%264.9hPa0V00:00:0000:00:0000:00:00
PU1XMG-162026-09-06 00:33:32-22.85777-42.86789103°135km/h10481m3.5m/s-38.5°C62.5%265.8hPa0V00:00:0000:00:0000:00:00
PU1XMG-162026-09-06 00:33:26-22.85740-42.86968104°133km/h10460m5.1m/s-38.3°C60.9%266.7hPa0V00:00:0000:00:0000:00:00
PU1XMG-162026-09-06 00:33:22-22.85699-42.87151102°133km/h10440m4.4m/s-38.2°C61.1%267.5hPa0V00:00:0000:00:0000:00:00
PU1XMG-162026-09-06 00:33:17-22.85671-42.87326102°133km/h10422m3.8m/s-38.0°C64.2%268.2hPa0V00:00:0000:00:0000:00:00
PU1XMG-162026-09-06 00:33:12-22.85637-42.8750799°131km/h10400m6.8m/s-37.8°C61.9%268.9hPa0V00:00:0000:00:0000:00:00
PU1XMG-162026-09-06 00:33:06-22.85607-42.87713102°135km/h10368m3.8m/s-37.5°C62.3%270.4hPa0V00:00:0000:00:0000:00:00
PU1XMG-162026-09-06 00:33:01-22.85572-42.87895102°142km/h10342m5.7m/s-37.3°C60.3%271.3hPa0V00:00:0000:00:0000:00:00
PU1XMG-162026-09-06 00:32:55-22.85522-42.88122102°133km/h10308m4.1m/s-37.0°C62.0%272.6hPa0V00:00:0000:00:0000:00:00
PU1XMG-162026-09-06 00:32:50-22.85482-42.88304106°150km/h10283m6.0m/s-36.7°C58.5%273.6hPa0V00:00:0000:00:0000:00:00
PU1XMG-162026-09-06 00:32:43-22.85423-42.88528105°133km/h10253m5.4m/s-36.5°C60.3%274.8hPa0V00:00:0000:00:0000:00:00
PU1XMG-162026-09-06 00:32:38-22.85398-42.8871297°131km/h10231m5.4m/s-36.2°C61.4%275.7hPa0V00:00:0000:00:0000:00:00
PU1XMG-162026-09-06 00:32:34-22.85358-42.88888108°141km/h10202m5.1m/s-36.2°C64.9%276.8hPa0V00:00:0000:00:0000:00:00
PU1XMG-162026-09-06 00:32:21-22.85295-42.89385101°137km/h10137m7.1m/s-35.6°C62.8%279.5hPa0V00:00:0000:00:0000:00:00
PU1XMG-162026-09-06 00:32:14-22.85251-42.8961199°142km/h10107m4.9m/s-35.4°C65.4%280.7hPa0V00:00:0000:00:0000:00:00
PU1XMG-162026-09-06 00:32:08-22.85219-42.8985198°148km/h10083m3.7m/s-35.2°C66.3%281.7hPa0V00:00:0000:00:0000:00:00
PU1XMG-162026-09-06 00:32:04-22.85191-42.90047102°144km/h10059m8.3m/s-35.0°C64.4%282.6hPa0V00:00:0000:00:0000:00:00
PU1XMG-162026-09-06 00:31:58-22.85143-42.90276100°135km/h10029m4.7m/s-34.8°C66.1%283.8hPa0V00:00:0000:00:0000:00:00
PU1XMG-162026-09-06 00:31:53-22.85121-42.90449100°128km/h10010m3.6m/s-34.6°C66.7%284.6hPa0V00:00:0000:00:0000:00:00
PU1XMG-162026-09-06 00:31:47-22.85093-42.9063199°135km/h9984m6.2m/s-34.4°C65.3%285.6hPa0V00:00:0000:00:0000:00:00
PU1XMG-162026-09-06 00:31:42-22.85054-42.90842103°128km/h9957m2.4m/s-34.1°C65.7%286.7hPa0V00:00:0000:00:0000:00:00
PU1XMG-162026-09-06 00:31:37-22.85019-42.91018102°135km/h9933m4.7m/s-33.9°C64.1%287.7hPa0V00:00:0000:00:0000:00:00
PU1XMG-162026-09-06 00:31:32-22.84998-42.9120498°135km/h9913m3.8m/s-33.8°C64.9%288.5hPa0V00:00:0000:00:0000:00:00
PU1XMG-162026-09-06 00:31:25-22.84966-42.91421101°135km/h9890m5.3m/s-33.7°C66.3%289.5hPa0V00:00:0000:00:0000:00:00
PU1XMG-162026-09-06 00:31:21-22.84936-42.91610101°137km/h9869m4.1m/s-33.6°C66.7%290.4hPa0V00:00:0000:00:0000:00:00
PU1XMG-162026-09-06 00:31:15-22.84904-42.91827101°120km/h9843m4.3m/s-33.5°C67.0%291.4hPa0V00:00:0000:00:0000:00:00
PU1XMG-162026-09-06 00:31:10-22.84871-42.91990106°128km/h9824m3.0m/s-33.4°C68.0%292.2hPa0V00:00:0000:00:0000:00:00
PU1XMG-162026-09-06 00:30:59-22.84810-42.9234899°122km/h9781m4.2m/s-33.1°C70.3%294.0hPa0V00:00:0000:00:0000:00:00
PU1XMG-162026-09-06 00:30:55-22.84782-42.92526101°139km/h9749m5.5m/s-32.8°C69.4%295.4hPa0V00:00:0000:00:0000:00:00
PU1XMG-162026-09-06 00:30:48-22.84757-42.9274197°131km/h9719m7.0m/s-32.6°C70.0%296.6hPa0V00:00:0000:00:0000:00:00
PU1XMG-162026-09-06 00:30:43-22.84745-42.9291295°124km/h9690m4.9m/s-32.4°C72.5%297.8hPa0V00:00:0000:00:0000:00:00
PU1XMG-162026-09-06 00:30:38-22.84721-42.9311499°128km/h9664m4.6m/s-32.3°C74.2%299.0hPa0V00:00:0000:00:0000:00:00
PU1XMG-162026-09-06 00:30:33-22.84699-42.93281102°122km/h9634m6.6m/s-32.0°C72.3%300.2hPa0V00:00:0000:00:0000:00:00
PU1XMG-162026-09-06 00:30:27-22.84677-42.9347998°117km/h9600m5.9m/s-31.7°C73.7%301.6hPa0V00:00:0000:00:0000:00:00
PU1XMG-162026-09-06 00:30:20-22.84658-42.9367898°120km/h9562m7.0m/s-31.7°C74.9%303.2hPa0V00:00:0000:00:0000:00:00
PU1XMG-162026-09-06 00:30:17-22.84639-42.9385192°119km/h9534m4.5m/s-31.5°C75.6%304.5hPa0V00:00:0000:00:0000:00:00
PU1XMG-162026-09-06 00:30:09-22.84633-42.9402893°113km/h9500m3.8m/s-31.2°C75.6%305.9hPa0V00:00:0000:00:0000:00:00
PU1XMG-162026-09-06 00:30:03-22.84622-42.94211103°104km/h9469m5.4m/s-30.9°C74.0%307.3hPa0V00:00:0000:00:0000:00:00
PU1XMG-162026-09-06 00:29:59-22.84596-42.94356100°110km/h9440m7.4m/s-30.7°C73.2%308.5hPa0V00:00:0000:00:0000:00:00
PU1XMG-162026-09-06 00:29:53-22.84577-42.9450897°102km/h9412m4.3m/s-30.5°C75.0%309.8hPa0V00:00:0000:00:0000:00:00
PU1XMG-162026-09-06 00:29:47-22.84559-42.9468399°122km/h9388m4.4m/s-30.3°C74.4%310.8hPa0V00:00:0000:00:0000:00:00
PU1XMG-162026-09-06 00:29:43-22.84540-42.9483495°97km/h9367m4.8m/s-30.2°C74.9%311.7hPa0V00:00:0000:00:0000:00:00
PU1XMG-162026-09-06 00:29:36-22.84523-42.94992102°102km/h9342m4.9m/s-30.0°C76.5%312.8hPa0V00:00:0000:00:0000:00:00
PU1XMG-162026-09-06 00:29:30-22.84489-42.9516299°113km/h9314m4.9m/s-29.8°C75.5%314.0hPa0V00:00:0000:00:0000:00:00
PU1XMG-162026-09-06 00:29:25-22.84466-42.95305105°93km/h9291m4.5m/s-29.7°C76.9%315.1hPa0V00:00:0000:00:0000:00:00
PU1XMG-162026-09-06 00:29:19-22.84438-42.9546398°104km/h9263m3.2m/s-29.5°C77.2%316.2hPa0V00:00:0000:00:0000:00:00
PU1XMG-162026-09-06 00:29:14-22.84415-42.95604103°104km/h9243m3.6m/s-29.3°C77.6%317.2hPa0V00:00:0000:00:0000:00:00
PU1XMG-162026-09-06 00:29:09-22.84383-42.95776104°110km/h9218m4.4m/s-29.3°C77.5%318.3hPa0V00:00:0000:00:0000:00:00
PU1XMG-162026-09-06 00:29:02-22.84343-42.95934106°95km/h9192m7.8m/s-29.3°C78.0%319.4hPa0V00:00:0000:00:0000:00:00
PU1XMG-162026-09-06 00:28:53-22.84305-42.9619799°88km/h9136m3.3m/s-28.8°C75.1%322.0hPa0V00:00:0000:00:0000:00:00
PU1XMG-162026-09-06 00:28:46-22.84263-42.96351111°97km/h9105m7.9m/s-28.6°C74.1%323.3hPa0V00:00:0000:00:0000:00:00
PU1XMG-162026-09-06 00:28:40-22.84222-42.96497105°97km/h9067m5.1m/s-28.3°C73.4%325.0hPa0V00:00:0000:00:0000:00:00
PU1XMG-162026-09-06 00:28:36-22.84184-42.96612115°93km/h9037m6.2m/s-28.1°C75.1%326.4hPa0V00:00:0000:00:0000:00:00
PU1XMG-162026-09-06 00:28:30-22.84141-42.96732114°95km/h9006m7.4m/s-27.8°C73.6%327.8hPa0V00:00:0000:00:0000:00:00
PU1XMG-162026-09-06 00:28:25-22.84090-42.96878108°91km/h8973m4.7m/s-27.6°C72.6%329.3hPa0V00:00:0000:00:0000:00:00
PU1XMG-162026-09-06 00:28:19-22.84035-42.97024121°102km/h8947m4.2m/s-27.3°C70.8%330.6hPa0V00:00:0000:00:0000:00:00
PU1XMG-162026-09-06 00:28:12-22.83968-42.97165111°91km/h8923m5.3m/s-27.2°C74.9%331.6hPa0V00:00:0000:00:0000:00:00
PU1XMG-162026-09-06 00:28:07-22.83919-42.97310111°86km/h8885m7.8m/s-26.8°C74.4%333.3hPa0V00:00:0000:00:0000:00:00
PU1XMG-162026-09-06 00:28:00-22.83862-42.97434120°82km/h8847m4.1m/s-26.5°C74.1%335.2hPa0V00:00:0000:00:0000:00:00
PU1XMG-162026-09-06 00:27:55-22.83809-42.97554113°100km/h8824m6.3m/s-26.3°C73.0%336.1hPa0V00:00:0000:00:0000:00:00
PU1XMG-162026-09-06 00:27:51-22.83765-42.97664117°88km/h8794m5.2m/s-26.0°C72.2%337.5hPa0V00:00:0000:00:0000:00:00
PU1XMG-162026-09-06 00:27:45-22.83710-42.97808117°93km/h8762m5.7m/s-25.7°C74.8%339.1hPa0V00:00:0000:00:0000:00:00
PU1XMG-162026-09-06 00:27:39-22.83646-42.97952114°86km/h8725m4.9m/s-25.5°C75.5%340.9hPa0V00:00:0000:00:0000:00:00
PU1XMG-162026-09-06 00:27:32-22.83597-42.98077113°80km/h8690m6.3m/s-25.2°C73.6%342.4hPa0V00:00:0000:00:0000:00:00
PU1XMG-162026-09-06 00:27:28-22.83546-42.98195117°104km/h8663m5.9m/s-24.9°C73.6%343.7hPa0V00:00:0000:00:0000:00:00
PU1XMG-162026-09-06 00:27:22-22.83504-42.98325106°99km/h8640m5.6m/s-24.7°C73.7%344.9hPa0V00:00:0000:00:0000:00:00
PU1XMG-162026-09-06 00:27:17-22.83442-42.98477119°88km/h8602m5.2m/s-24.4°C72.0%346.6hPa0V00:00:0000:00:0000:00:00
PU1XMG-162026-09-06 00:27:10-22.83401-42.98615110°100km/h8568m7.5m/s-24.1°C72.1%348.2hPa0V00:00:0000:00:0000:00:00
PU1XMG-162026-09-06 00:27:06-22.83348-42.98742115°104km/h8538m7.2m/s-23.9°C72.0%349.7hPa0V00:00:0000:00:0000:00:00
PU1XMG-162026-09-06 00:26:59-22.83283-42.98897111°97km/h8509m5.2m/s-23.6°C72.3%351.1hPa0V00:00:0000:00:0000:00:00
PU1XMG-162026-09-06 00:26:54-22.83255-42.99025100°99km/h8481m3.4m/s-23.4°C71.5%352.5hPa0V00:00:0000:00:0000:00:00
PU1XMG-162026-09-06 00:26:48-22.83220-42.99174115°102km/h8450m5.2m/s-23.1°C70.6%354.0hPa0V00:00:0000:00:0000:00:00
PU1XMG-162026-09-06 00:26:44-22.83179-42.99306102°97km/h8422m5.1m/s-22.8°C69.8%355.3hPa0V00:00:0000:00:0000:00:00
PU1XMG-162026-09-06 00:26:37-22.83138-42.99442110°97km/h8387m5.5m/s-22.5°C68.6%357.1hPa0V00:00:0000:00:0000:00:00
PU1XMG-162026-09-06 00:26:32-22.83086-42.99598108°93km/h8351m6.5m/s-22.2°C67.4%358.7hPa0V00:00:0000:00:0000:00:00
PU1XMG-162026-09-06 00:26:25-22.83052-42.99753104°100km/h8323m4.2m/s-22.0°C68.2%360.2hPa0V00:00:0000:00:0000:00:00
PU1XMG-162026-09-06 00:26:20-22.83011-42.99902106°93km/h8297m5.4m/s-21.7°C66.8%361.3hPa0V00:00:0000:00:0000:00:00
PU1XMG-162026-09-06 00:26:15-22.82981-43.00036106°100km/h8278m3.2m/s-21.7°C65.6%362.3hPa0V00:00:0000:00:0000:00:00
PU1XMG-162026-09-06 00:26:08-22.82933-43.00188113°93km/h8250m5.1m/s-21.6°C66.2%363.6hPa0V00:00:0000:00:0000:00:00
PU1XMG-162026-09-06 00:26:03-22.82887-43.00339105°97km/h8226m3.7m/s-21.5°C70.0%364.8hPa0V00:00:0000:00:0000:00:00
PU1XMG-162026-09-06 00:25:57-22.82850-43.00473109°102km/h8206m5.2m/s-21.3°C69.1%365.8hPa0V00:00:0000:00:0000:00:00
PU1XMG-162026-09-06 00:25:53-22.82809-43.00597110°95km/h8187m4.4m/s-21.2°C69.3%366.7hPa0V00:00:0000:00:0000:00:00
PU1XMG-162026-09-06 00:25:46-22.82774-43.00754106°99km/h8165m3.6m/s-21.0°C70.2%367.9hPa0V00:00:0000:00:0000:00:00
PU1XMG-162026-09-06 00:25:42-22.82738-43.00876108°88km/h8146m3.3m/s-20.9°C71.7%368.8hPa0V00:00:0000:00:0000:00:00
PU1XMG-162026-09-06 00:25:35-22.82701-43.01027105°104km/h8117m6.2m/s-20.7°C73.9%370.2hPa0V00:00:0000:00:0000:00:00
PU1XMG-162026-09-06 00:25:32-22.82669-43.01164105°99km/h8094m4.7m/s-20.6°C76.4%371.3hPa0V00:00:0000:00:0000:00:00
PU1XMG-162026-09-06 00:25:26-22.82633-43.01298110°108km/h8070m5.8m/s-20.4°C75.0%372.6hPa0V00:00:0000:00:0000:00:00
PU1XMG-162026-09-06 00:25:19-22.82590-43.01460103°89km/h8039m6.4m/s-20.2°C79.7%374.2hPa0V00:00:0000:00:0000:00:00
PU1XMG-162026-09-06 00:25:14-22.82563-43.01598106°113km/h8011m4.9m/s-20.1°C82.8%375.5hPa0V00:00:0000:00:0000:00:00
PU1XMG-162026-09-06 00:25:09-22.82519-43.01741106°110km/h7984m7.2m/s-20.3°C93.5%376.9hPa0V00:00:0000:00:0000:00:00
PU1XMG-162026-09-06 00:25:03-22.82489-43.01912105°110km/h7953m4.8m/s-20.2°C93.8%378.4hPa0V00:00:0000:00:0000:00:00
PU1XMG-162026-09-06 00:24:58-22.82460-43.02050102°89km/h7926m5.2m/s-20.3°C95.6%379.8hPa0V00:00:0000:00:0000:00:00
PU1XMG-162026-09-06 00:24:52-22.82426-43.02184111°86km/h7895m4.6m/s-20.0°C95.7%381.5hPa0V00:00:0000:00:0000:00:00
PU1XMG-162026-09-06 00:24:47-22.82393-43.02293113°82km/h7868m5.9m/s-20.0°C95.3%382.8hPa0V00:00:0000:00:0000:00:00
PU1XMG-162026-09-06 00:24:41-22.82343-43.02414107°89km/h7843m4.8m/s-19.8°C95.2%384.1hPa0V00:00:0000:00:0000:00:00
PU1XMG-162026-09-06 00:24:36-22.82328-43.0253296°84km/h7814m5.4m/s-19.7°C94.9%385.6hPa0V00:00:0000:00:0000:00:00
PU1XMG-162026-09-06 00:24:30-22.82305-43.02670107°77km/h7780m5.5m/s-19.4°C93.8%387.3hPa0V00:00:0000:00:0000:00:00
PU1XMG-162026-09-06 00:24:25-22.82282-43.02771100°69km/h7754m5.2m/s-19.2°C93.3%388.7hPa0V00:00:0000:00:0000:00:00
PU1XMG-162026-09-06 00:24:19-22.82255-43.02895104°86km/h7726m5.2m/s-19.1°C92.3%390.2hPa0V00:00:0000:00:0000:00:00
PU1XMG-162026-09-06 00:24:13-22.82232-43.03023108°77km/h7698m3.8m/s-18.9°C91.7%391.7hPa0V00:00:0000:00:0000:00:00
PU1XMG-162026-09-06 00:24:07-22.82205-43.0315499°78km/h7669m3.9m/s-18.7°C90.7%393.2hPa0V00:00:0000:00:0000:00:00
PU1XMG-162026-09-06 00:24:02-22.82191-43.03262102°78km/h7647m4.1m/s-18.5°C89.8%394.4hPa0V00:00:0000:00:0000:00:00
PU1XMG-162026-09-06 00:23:56-22.82169-43.03384103°73km/h7618m3.9m/s-18.3°C90.2%395.9hPa0V00:00:0000:00:0000:00:00
PU1XMG-162026-09-06 00:23:51-22.82156-43.03485100°71km/h7598m5.0m/s-18.1°C89.5%396.9hPa0V00:00:0000:00:0000:00:00
PU1XMG-162026-09-06 00:23:46-22.82130-43.03600109°71km/h7575m4.7m/s-18.0°C89.9%398.2hPa0V00:00:0000:00:0000:00:00
PU1XMG-162026-09-06 00:23:39-22.82105-43.03716102°75km/h7546m5.6m/s-17.7°C88.9%399.8hPa0V00:00:0000:00:0000:00:00
PU1XMG-162026-09-06 00:23:34-22.82092-43.0381197°69km/h7525m4.1m/s-17.6°C89.0%400.8hPa0V00:00:0000:00:0000:00:00
PU1XMG-162026-09-06 00:23:28-22.82069-43.03933103°82km/h7502m4.1m/s-17.4°C88.6%402.1hPa0V00:00:0000:00:0000:00:00
PU1XMG-162026-09-06 00:23:23-22.82050-43.0403997°77km/h7482m5.2m/s-17.2°C90.0%403.1hPa0V00:00:0000:00:0000:00:00
PU1XMG-162026-09-06 00:23:18-22.82045-43.0413192°60km/h7458m4.8m/s-17.1°C89.1%404.5hPa0V00:00:0000:00:0000:00:00
PU1XMG-162026-09-06 00:23:13-22.82025-43.04222107°78km/h7432m7.3m/s-16.9°C89.1%405.8hPa0V00:00:0000:00:0000:00:00
PU1XMG-162026-09-06 00:23:08-22.82012-43.0433496°71km/h7401m6.0m/s-17.3°C88.2%407.5hPa0V00:00:0000:00:0000:00:00
PU1XMG-162026-09-06 00:23:02-22.81995-43.0444592°68km/h7371m5.6m/s-17.5°C79.9%409.1hPa0V00:00:0000:00:0000:00:00
PU1XMG-162026-09-06 00:22:56-22.81998-43.0457394°80km/h7335m6.7m/s-17.3°C73.5%411.1hPa0V00:00:0000:00:0000:00:00
PU1XMG-162026-09-06 00:22:50-22.81997-43.0469690°86km/h7303m4.9m/s-17.1°C68.9%412.9hPa0V00:00:0000:00:0000:00:00
PU1XMG-162026-09-06 00:22:44-22.82010-43.0484284°75km/h7277m3.9m/s-16.9°C66.4%414.4hPa0V00:00:0000:00:0000:00:00
PU1XMG-162026-09-06 00:22:39-22.82011-43.0494295°86km/h7252m3.2m/s-16.7°C67.2%415.7hPa0V00:00:0000:00:0000:00:00
PU1XMG-162026-09-06 00:22:34-22.82020-43.0506980°88km/h7225m4.5m/s-16.4°C65.7%417.2hPa0V00:00:0000:00:0000:00:00
PU1XMG-162026-09-06 00:22:29-22.82027-43.0517193°69km/h7204m5.3m/s-16.2°C64.3%418.3hPa0V00:00:0000:00:0000:00:00
PU1XMG-162026-09-06 00:22:23-22.82025-43.0529098°84km/h7177m4.3m/s-16.0°C62.8%419.8hPa0V00:00:0000:00:0000:00:00
PU1XMG-162026-09-06 00:22:18-22.82026-43.0544080°86km/h7143m5.9m/s-15.6°C60.9%421.7hPa0V00:00:0000:00:0000:00:00
PU1XMG-162026-09-06 00:22:11-22.82033-43.0557792°99km/h7113m4.7m/s-15.4°C63.7%423.4hPa0V00:00:0000:00:0000:00:00
PU1XMG-162026-09-06 00:22:05-22.82045-43.0573089°82km/h7084m5.7m/s-15.2°C64.4%425.1hPa0V00:00:0000:00:0000:00:00
PU1XMG-162026-09-06 00:21:59-22.82039-43.0588790°106km/h7046m5.4m/s-14.9°C65.5%427.1hPa0V00:00:0000:00:0000:00:00
PU1XMG-162026-09-06 00:21:54-22.82053-43.0603082°104km/h7016m7.7m/s-14.6°C62.6%428.8hPa0V00:00:0000:00:0000:00:00
PU1XMG-162026-09-06 00:21:49-22.82058-43.0619087°89km/h6975m7.4m/s-14.6°C42.3%431.1hPa0V00:00:0000:00:0000:00:00
PU1XMG-162026-09-06 00:21:43-22.82070-43.0631088°82km/h6949m7.4m/s-14.3°C41.1%432.6hPa0V00:00:0000:00:0000:00:00
PU1XMG-162026-09-06 00:21:37-22.82064-43.0646396°100km/h6910m6.0m/s-14.0°C38.0%434.7hPa0V00:00:0000:00:0000:00:00
PU1XMG-162026-09-06 00:21:31-22.82051-43.0662889°97km/h6877m5.6m/s-13.7°C38.7%436.7hPa0V00:00:0000:00:0000:00:00
PU1XMG-162026-09-06 00:21:26-22.82068-43.0675384°95km/h6848m4.8m/s-13.5°C37.1%438.4hPa0V00:00:0000:00:0000:00:00
PU1XMG-162026-09-06 00:21:20-22.82077-43.0691284°97km/h6808m5.8m/s-13.1°C38.0%440.7hPa0V00:00:0000:00:0000:00:00
PU1XMG-162026-09-06 00:21:15-22.82096-43.0707183°88km/h6774m6.2m/s-12.8°C36.4%442.5hPa0V00:00:0000:00:0000:00:00
PU1XMG-162026-09-06 00:21:08-22.82111-43.0720587°80km/h6736m6.0m/s-12.4°C33.4%444.8hPa0V00:00:0000:00:0000:00:00
PU1XMG-162026-09-06 00:21:03-22.82123-43.0733484°102km/h6705m7.5m/s-12.2°C33.2%446.5hPa0V00:00:0000:00:0000:00:00
PU1XMG-162026-09-06 00:20:58-22.82125-43.0746593°95km/h6675m6.2m/s-12.0°C32.4%448.3hPa0V00:00:0000:00:0000:00:00
PU1XMG-162026-09-06 00:20:53-22.82132-43.0759185°89km/h6648m4.3m/s-11.8°C33.5%449.9hPa0V00:00:0000:00:0000:00:00
PU1XMG-162026-09-06 00:20:47-22.82146-43.0774386°86km/h6616m5.4m/s-11.5°C32.6%451.8hPa0V00:00:0000:00:0000:00:00
PU1XMG-162026-09-06 00:20:42-22.82151-43.0787288°108km/h6587m6.0m/s-11.3°C29.9%453.4hPa0V00:00:0000:00:0000:00:00
PU1XMG-162026-09-06 00:20:37-22.82154-43.0801494°95km/h6559m6.5m/s-11.0°C30.7%455.1hPa0V00:00:0000:00:0000:00:00
PU1XMG-162026-09-06 00:20:32-22.82158-43.0814289°99km/h6530m4.3m/s-11.0°C30.0%456.7hPa0V00:00:0000:00:0000:00:00
PU1XMG-162026-09-06 00:20:26-22.82155-43.0830791°100km/h6498m7.6m/s-11.0°C37.9%458.8hPa0V00:00:0000:00:0000:00:00
PU1XMG-162026-09-06 00:20:21-22.82168-43.0842781°86km/h6470m6.3m/s-11.0°C43.1%460.5hPa0V00:00:0000:00:0000:00:00
PU1XMG-162026-09-06 00:20:15-22.82169-43.0857495°89km/h6435m4.6m/s-10.7°C43.7%462.6hPa0V00:00:0000:00:0000:00:00
PU1XMG-162026-09-06 00:20:10-22.82171-43.0870688°91km/h6410m6.0m/s-10.5°C44.4%464.1hPa0V00:00:0000:00:0000:00:00
PU1XMG-162026-09-06 00:20:05-22.82171-43.0881793°86km/h6383m6.8m/s-10.3°C43.9%465.7hPa0V00:00:0000:00:0000:00:00
PU1XMG-162026-09-06 00:20:00-22.82168-43.0894993°93km/h6357m6.7m/s-10.1°C44.3%467.3hPa0V00:00:0000:00:0000:00:00
PU1XMG-162026-09-06 00:19:54-22.82167-43.0907995°80km/h6324m5.8m/s-9.9°C43.3%469.2hPa0V00:00:0000:00:0000:00:00
PU1XMG-162026-09-06 00:19:48-22.82163-43.0922584°99km/h6288m5.0m/s-9.6°C42.8%471.4hPa0V00:00:0000:00:0000:00:00
PU1XMG-162026-09-06 00:19:42-22.82176-43.0936892°75km/h6257m5.3m/s-9.4°C43.8%473.3hPa0V00:00:0000:00:0000:00:00
PU1XMG-162026-09-06 00:19:37-22.82178-43.0946793°73km/h6230m6.8m/s-9.2°C44.2%474.9hPa0V00:00:0000:00:0000:00:00
PU1XMG-162026-09-06 00:19:32-22.82169-43.0958290°91km/h6203m5.6m/s-9.2°C44.9%476.6hPa0V00:00:0000:00:0000:00:00
PU1XMG-162026-09-06 00:19:26-22.82181-43.0972985°77km/h6173m3.8m/s-9.3°C45.3%478.5hPa0V00:00:0000:00:0000:00:00
PU1XMG-162026-09-06 00:19:20-22.82173-43.0985897°88km/h6141m4.4m/s-9.5°C52.5%480.4hPa0V00:00:0000:00:0000:00:00
PU1XMG-162026-09-06 00:19:15-22.82175-43.0998485°89km/h6112m5.5m/s-9.5°C57.2%482.2hPa0V00:00:0000:00:0000:00:00
PU1XMG-162026-09-06 00:19:10-22.82179-43.1009687°77km/h6085m6.5m/s-9.9°C84.2%483.9hPa0V00:00:0000:00:0000:00:00
PU1XMG-162026-09-06 00:19:04-22.82194-43.1022986°84km/h6061m5.4m/s-9.8°C0%485.3hPa0V00:00:0000:00:0000:00:00
PU1XMG-162026-09-06 00:18:59-22.82188-43.10348101°88km/h6033m5.7m/s-9.5°C0%487.1hPa0V00:00:0000:00:0000:00:00
PU1XMG-162026-09-06 00:18:53-22.82157-43.10492104°88km/h6004m3.9m/s-9.2°C0%488.9hPa0V00:00:0000:00:0000:00:00
PU1XMG-162026-09-06 00:18:48-22.82146-43.1060391°69km/h5981m4.4m/s-9.1°C0%490.4hPa0V00:00:0000:00:0000:00:00
PU1XMG-162026-09-06 00:18:42-22.82144-43.1072394°80km/h5953m5.7m/s-8.9°C0%492.2hPa0V00:00:0000:00:0000:00:00
PU1XMG-162026-09-06 00:18:38-22.82139-43.1082994°78km/h5927m4.2m/s-8.7°C0%493.9hPa0V00:00:0000:00:0000:00:00
PU1XMG-162026-09-06 00:18:31-22.82132-43.1095099°73km/h5895m4.9m/s-8.5°C0%495.9hPa0V00:00:0000:00:0000:00:00
PU1XMG-162026-09-06 00:18:25-22.82118-43.1107695°68km/h5866m3.6m/s-8.3°C0%497.9hPa0V00:00:0000:00:0000:00:00
PU1XMG-162026-09-06 00:18:19-22.82112-43.1118492°68km/h5837m3.7m/s-8.1°C0%499.8hPa0V00:00:0000:00:0000:00:00
PU1XMG-162026-09-06 00:18:12-22.82104-43.11336104°88km/h5796m4.5m/s-7.9°C0%502.2hPa0V00:00:0000:00:0000:00:00
PU1XMG-162026-09-06 00:18:07-22.82071-43.11440112°68km/h5771m4.5m/s-7.7°C0%503.8hPa0V00:00:0000:00:0000:00:00
PU1XMG-162026-09-06 00:18:01-22.82049-43.1153298°62km/h5745m4.1m/s-7.5°C0%505.5hPa0V00:00:0000:00:0000:00:00
PU1XMG-162026-09-06 00:17:56-22.82034-43.11632100°78km/h5720m5.1m/s-7.4°C0%507.1hPa0V00:00:0000:00:0000:00:00
PU1XMG-162026-09-06 00:17:50-22.82021-43.11767106°78km/h5690m4.0m/s-7.1°C99.9%509.1hPa0V00:00:0000:00:0000:00:00
PU1XMG-162026-09-06 00:17:45-22.81997-43.11855103°62km/h5666m6.4m/s-7.0°C0%510.6hPa0V00:00:0000:00:0000:00:00
PU1XMG-162026-09-06 00:17:39-22.81979-43.1197796°77km/h5635m6.3m/s-6.7°C97.0%512.7hPa0V00:00:0000:00:0000:00:00
PU1XMG-162026-09-06 00:17:34-22.81969-43.12082101°75km/h5611m6.2m/s-6.5°C98.5%514.3hPa0V00:00:0000:00:0000:00:00
PU1XMG-162026-09-06 00:17:28-22.81947-43.12191104°64km/h5578m6.8m/s-6.3°C98.7%516.4hPa0V00:00:0000:00:0000:00:00
PU1XMG-162026-09-06 00:17:23-22.81927-43.12286104°80km/h5549m5.0m/s-6.1°C97.7%518.4hPa0V00:00:0000:00:0000:00:00
PU1XMG-162026-09-06 00:17:17-22.81911-43.1241098°69km/h5518m5.2m/s-5.8°C96.3%520.6hPa0V00:00:0000:00:0000:00:00
PU1XMG-162026-09-06 00:17:12-22.81893-43.12493110°66km/h5492m4.0m/s-5.7°C96.5%522.1hPa0V00:00:0000:00:0000:00:00
PU1XMG-162026-09-06 00:17:06-22.81862-43.12617107°80km/h5464m4.9m/s-5.6°C97.8%524.0hPa0V00:00:0000:00:0000:00:00
PU1XMG-162026-09-06 00:17:01-22.81834-43.12714110°68km/h5442m5.9m/s-5.5°C99.0%525.5hPa0V00:00:0000:00:0000:00:00
PU1XMG-162026-09-06 00:16:56-22.81807-43.12815105°82km/h5417m6.4m/s-5.3°C0%527.2hPa0V00:00:0000:00:0000:00:00
PU1XMG-162026-09-06 00:16:51-22.81783-43.12926105°78km/h5392m3.7m/s-5.3°C0%528.8hPa0V00:00:0000:00:0000:00:00
PU1XMG-162026-09-06 00:16:46-22.81760-43.13014108°60km/h5366m5.3m/s-5.0°C0%530.4hPa0V00:00:0000:00:0000:00:00
PU1XMG-162026-09-06 00:16:41-22.81742-43.1311499°75km/h5336m4.7m/s-4.7°C0%532.4hPa0V00:00:0000:00:0000:00:00
PU1XMG-162026-09-06 00:16:35-22.81732-43.1321398°64km/h5309m4.6m/s-4.5°C0%534.3hPa0V00:00:0000:00:0000:00:00
PU1XMG-162026-09-06 00:16:29-22.81710-43.13306109°58km/h5281m6.4m/s-4.4°C0%536.2hPa0V00:00:0000:00:0000:00:00
PU1XMG-162026-09-06 00:16:18-22.81665-43.13495104°66km/h5230m6.5m/s-4.1°C0%539.8hPa0V00:00:0000:00:0000:00:00
PU1XMG-162026-09-06 00:16:13-22.81647-43.13576107°58km/h5207m3.4m/s-4.1°C0%541.3hPa0V00:00:0000:00:0000:00:00
PU1XMG-162026-09-06 00:16:08-22.81628-43.1366299°71km/h5182m5.7m/s-3.9°C0%542.9hPa0V00:00:0000:00:0000:00:00
PU1XMG-162026-09-06 00:16:02-22.81612-43.13778103°78km/h5154m5.8m/s-3.8°C0%544.8hPa0V00:00:0000:00:0000:00:00
PU1XMG-162026-09-06 00:15:56-22.81595-43.1389798°66km/h5128m4.3m/s-3.7°C0%546.7hPa0V00:00:0000:00:0000:00:00
PU1XMG-162026-09-06 00:15:50-22.81577-43.13996100°66km/h5104m2.4m/s-3.6°C0%548.5hPa0V00:00:0000:00:0000:00:00
PU1XMG-162026-09-06 00:15:44-22.81566-43.14098105°57km/h5078m2.4m/s-3.5°C0%550.3hPa0V00:00:0000:00:0000:00:00
PU1XMG-162026-09-06 00:15:38-22.81540-43.14207103°77km/h5051m2.7m/s-3.2°C0%552.2hPa0V00:00:0000:00:0000:00:00
PU1XMG-162026-09-06 00:15:33-22.81517-43.14313106°78km/h5029m3.5m/s-3.4°C0%553.6hPa0V00:00:0000:00:0000:00:00
PU1XMG-162026-09-06 00:15:28-22.81488-43.14405112°68km/h5012m5.6m/s-3.2°C0%554.8hPa0V00:00:0000:00:0000:00:00
PU1XMG-162026-09-06 00:15:22-22.81467-43.1451998°77km/h4986m5.2m/s-3.0°C0%556.6hPa0V00:00:0000:00:0000:00:00
PU1XMG-162026-09-06 00:15:17-22.81458-43.1462297°75km/h4964m4.6m/s-2.6°C0%558.2hPa0V00:00:0000:00:0000:00:00
PU1XMG-162026-09-06 00:15:11-22.81444-43.14744102°68km/h4938m5.0m/s-2.3°C0%560.0hPa0V00:00:0000:00:0000:00:00
PU1XMG-162026-09-06 00:15:05-22.81431-43.1485197°64km/h4901m7.0m/s-2.1°C0%562.5hPa0V00:00:0000:00:0000:00:00
PU1XMG-162026-09-06 00:15:00-22.81427-43.1494292°60km/h4866m6.7m/s-2.0°C0%565.0hPa0V00:00:0000:00:0000:00:00
PU1XMG-162026-09-06 00:14:55-22.81428-43.1504287°62km/h4834m5.6m/s-1.7°C0%567.3hPa0V00:00:0000:00:0000:00:00
PU1XMG-162026-09-06 00:14:48-22.81434-43.1515190°64km/h4802m5.5m/s-1.7°C0%569.6hPa0V00:00:0000:00:0000:00:00
PU1XMG-162026-09-06 00:14:42-22.81429-43.1525591°60km/h4765m6.5m/s-1.4°C0%572.2hPa0V00:00:0000:00:0000:00:00
PU1XMG-162026-09-06 00:14:37-22.81428-43.1535194°82km/h4735m7.7m/s-1.2°C0%574.1hPa0V00:00:0000:00:0000:00:00
PU1XMG-162026-09-06 00:14:32-22.81411-43.15466104°84km/h4709m4.4m/s-1.1°C0%576.1hPa0V00:00:0000:00:0000:00:00
PU1XMG-162026-09-06 00:14:26-22.81382-43.15594106°78km/h4685m6.5m/s-1.1°C0%578.0hPa0V00:00:0000:00:0000:00:00
PU1XMG-162026-09-06 00:14:21-22.81367-43.1569896°73km/h4660m5.6m/s-0.9°C0%579.8hPa0V00:00:0000:00:0000:00:00
PU1XMG-162026-09-06 00:14:15-22.81358-43.1581894°69km/h4624m7.2m/s-0.6°C0%582.3hPa0V00:00:0000:00:0000:00:00
PU1XMG-162026-09-06 00:14:09-22.81345-43.15936101°73km/h4587m7.8m/s-0.4°C0%585.1hPa0V00:00:0000:00:0000:00:00
PU1XMG-162026-09-06 00:14:04-22.81333-43.1603594°73km/h4552m6.7m/s-0.2°C0%587.7hPa0V00:00:0000:00:0000:00:00
PU1XMG-162026-09-06 00:13:58-22.81329-43.1615391°69km/h4511m8.2m/s-0.0°C0%590.8hPa0V00:00:0000:00:0000:00:00
PU1XMG-162026-09-06 00:13:52-22.81331-43.1626391°68km/h4471m6.9m/s0.2°C0%593.6hPa0V00:00:0000:00:0000:00:00
PU1XMG-162026-09-06 00:13:47-22.81326-43.1635396°62km/h4436m8.4m/s0.3°C0%596.3hPa0V00:00:0000:00:0000:00:00
PU1XMG-162026-09-06 00:13:42-22.81327-43.1643285°57km/h4396m8.9m/s0.6°C0%599.0hPa0V00:00:0000:00:0000:00:00
PU1XMG-162026-09-06 00:13:36-22.81338-43.1653083°62km/h4351m7.3m/s0.8°C0%602.5hPa0V00:00:0000:00:0000:00:00
PU1XMG-162026-09-06 00:13:31-22.81346-43.1661790°62km/h4317m7.1m/s1.0°C0%605.0hPa0V00:00:0000:00:0000:00:00
PU1XMG-162026-09-06 00:13:25-22.81343-43.1671689°55km/h4276m8.2m/s1.2°C0%608.1hPa0V00:00:0000:00:0000:00:00
PU1XMG-162026-09-06 00:13:20-22.81345-43.1679086°57km/h4239m6.7m/s1.5°C0%610.9hPa0V00:00:0000:00:0000:00:00
PU1XMG-162026-09-06 00:13:14-22.81358-43.1689283°66km/h4199m5.9m/s1.7°C0%614.2hPa0V00:00:0000:00:0000:00:00
PU1XMG-162026-09-06 00:13:10-22.81356-43.1699591°77km/h4166m7.2m/s1.8°C0%616.6hPa0V00:00:0000:00:0000:00:00
PU1XMG-162026-09-06 00:13:03-22.81362-43.1711490°69km/h4121m9.2m/s2.1°C0%619.9hPa0V00:00:0000:00:0000:00:00
PU1XMG-162026-09-06 00:12:58-22.81362-43.1720187°58km/h4083m7.9m/s2.3°C0%622.9hPa0V00:00:0000:00:0000:00:00
PU1XMG-162026-09-06 00:12:53-22.81368-43.1728490°58km/h4047m6.3m/s2.5°C0%625.6hPa0V00:00:0000:00:0000:00:00
PU1XMG-162026-09-06 00:12:47-22.81372-43.1738187°60km/h4008m4.8m/s2.8°C0%628.7hPa0V00:00:0000:00:0000:00:00
PU1XMG-162026-09-06 00:12:41-22.81379-43.1747887°60km/h3972m6.6m/s3.0°C0%631.5hPa0V00:00:0000:00:0000:00:00
PU1XMG-162026-09-06 00:12:36-22.81384-43.1755988°60km/h3942m6.5m/s3.0°C0%633.8hPa0V00:00:0000:00:0000:00:00
PU1XMG-162026-09-06 00:12:30-22.81385-43.1766297°60km/h3903m5.7m/s3.3°C0%636.7hPa0V00:00:0000:00:0000:00:00
PU1XMG-162026-09-06 00:12:22-22.81377-43.1779194°64km/h3854m5.4m/s3.6°C0%640.6hPa0V00:00:0000:00:0000:00:00
PU1XMG-162026-09-06 00:12:16-22.81372-43.1790090°62km/h3817m5.7m/s3.8°C0%643.7hPa0V00:00:0000:00:0000:00:00
PU1XMG-162026-09-06 00:12:11-22.81376-43.1798988°62km/h3790m7.6m/s3.9°C0%645.8hPa0V00:00:0000:00:0000:00:00
PU1XMG-162026-09-06 00:12:06-22.81376-43.1806894°62km/h3758m5.1m/s4.1°C0%648.3hPa0V00:00:0000:00:0000:00:00
PU1XMG-162026-09-06 00:12:00-22.81375-43.1817891°66km/h3720m6.2m/s4.3°C0%651.3hPa0V00:00:0000:00:0000:00:00
PU1XMG-162026-09-06 00:11:54-22.81369-43.1828395°62km/h3682m7.0m/s4.5°C0%654.1hPa0V00:00:0000:00:0000:00:00
PU1XMG-162026-09-06 00:11:49-22.81369-43.1836896°60km/h3655m6.1m/s4.6°C0%656.5hPa0V00:00:0000:00:0000:00:00
PU1XMG-162026-09-06 00:11:43-22.81351-43.18468104°66km/h3622m6.0m/s4.8°C0%659.1hPa0V00:00:0000:00:0000:00:00
PU1XMG-162026-09-06 00:11:38-22.81337-43.1855498°62km/h3595m4.5m/s4.9°C0%661.2hPa0V00:00:0000:00:0000:00:00
PU1XMG-162026-09-06 00:11:33-22.81335-43.1862992°53km/h3569m5.2m/s5.0°C0%663.4hPa0V00:00:0000:00:0000:00:00
PU1XMG-162026-09-06 00:11:27-22.81328-43.1872791°60km/h3538m5.5m/s5.2°C0%665.9hPa0V00:00:0000:00:0000:00:00
PU1XMG-162026-09-06 00:11:22-22.81323-43.1881297°62km/h3512m5.5m/s5.3°C0%667.8hPa0V00:00:0000:00:0000:00:00
PU1XMG-162026-09-06 00:11:11-22.81312-43.1899690°62km/h3457m6.2m/s5.6°C0%672.4hPa0V00:00:0000:00:0000:00:00
PU1XMG-162026-09-06 00:11:05-22.81302-43.1909495°58km/h3426m6.1m/s5.7°C0%675.1hPa0V00:00:0000:00:0000:00:00
PU1XMG-162026-09-06 00:10:59-22.81298-43.1919693°58km/h3395m3.9m/s5.8°C0%677.6hPa0V00:00:0000:00:0000:00:00
PU1XMG-162026-09-06 00:10:54-22.81297-43.1928494°68km/h3372m4.0m/s6.0°C0%679.4hPa0V00:00:0000:00:0000:00:00
PU1XMG-162026-09-06 00:10:49-22.81294-43.1937295°60km/h3350m3.3m/s6.1°C0%681.5hPa0V00:00:0000:00:0000:00:00
PU1XMG-162026-09-06 00:10:43-22.81290-43.1946993°64km/h3319m5.1m/s6.1°C0%683.9hPa0V00:00:0000:00:0000:00:00
PU1XMG-162026-09-06 00:10:38-22.81282-43.1955896°68km/h3296m5.2m/s6.2°C0%685.7hPa0V00:00:0000:00:0000:00:00
PU1XMG-162026-09-06 00:10:33-22.81276-43.1964397°62km/h3272m5.0m/s6.3°C0%687.6hPa0V00:00:0000:00:0000:00:00
PU1XMG-162026-09-06 00:10:28-22.81267-43.1972798°66km/h3252m4.6m/s6.4°C0%689.4hPa0V00:00:0000:00:0000:00:00
PU1XMG-162026-09-06 00:10:20-22.81256-43.1986995°64km/h3223m5.4m/s6.5°C0%692.1hPa0V00:00:0000:00:0000:00:00
PU1XMG-162026-09-06 00:10:14-22.81249-43.1997095°62km/h3198m4.0m/s6.6°C99.9%694.1hPa0V00:00:0000:00:0000:00:00
PU1XMG-162026-09-06 00:10:08-22.81242-43.2007496°60km/h3175m4.0m/s6.7°C99.9%695.9hPa0V00:00:0000:00:0000:00:00
PU1XMG-162026-09-06 00:09:54-22.81224-43.2030798°64km/h3120m6.0m/s7.0°C98.6%700.6hPa0V00:00:0000:00:0000:00:00
PU1XMG-162026-09-06 00:09:49-22.81220-43.2040393°69km/h3097m3.7m/s7.2°C97.4%702.5hPa0V00:00:0000:00:0000:00:00
PU1XMG-162026-09-06 00:09:43-22.81207-43.20508103°68km/h3067m6.7m/s7.4°C91.2%705.0hPa0V00:00:0000:00:0000:00:00
PU1XMG-162026-09-06 00:09:38-22.81199-43.2059998°62km/h3045m5.3m/s7.6°C90.2%707.1hPa0V00:00:0000:00:0000:00:00
PU1XMG-162026-09-06 00:09:33-22.81186-43.20686109°66km/h3019m4.1m/s7.8°C88.1%709.3hPa0V00:00:0000:00:0000:00:00
PU1XMG-162026-09-06 00:09:27-22.81165-43.2079389°66km/h2990m4.0m/s8.1°C86.7%711.8hPa0V00:00:0000:00:0000:00:00
PU1XMG-162026-09-06 00:09:22-22.81166-43.2087791°64km/h2967m4.6m/s8.3°C85.4%713.8hPa0V00:00:0000:00:0000:00:00
PU1XMG-162026-09-06 00:09:18-22.81168-43.20957101°49km/h2938m5.3m/s8.6°C84.2%716.3hPa0V00:00:0000:00:0000:00:00
PU1XMG-162026-09-06 00:09:10-22.81154-43.2106596°53km/h2901m5.1m/s8.9°C82.9%719.4hPa0V00:00:0000:00:0000:00:00
PU1XMG-162026-09-06 00:09:05-22.81150-43.21142101°55km/h2876m3.9m/s9.1°C82.4%721.5hPa0V00:00:0000:00:0000:00:00
PU1XMG-162026-09-06 00:08:59-22.81137-43.21237104°66km/h2844m5.6m/s9.3°C79.3%724.1hPa0V00:00:0000:00:0000:00:00
PU1XMG-162026-09-06 00:08:54-22.81121-43.21318100°57km/h2821m5.4m/s9.5°C77.7%726.4hPa0V00:00:0000:00:0000:00:00
PU1XMG-162026-09-06 00:08:48-22.81115-43.2140692°44km/h2786m5.2m/s9.8°C76.7%729.2hPa0V00:00:0000:00:0000:00:00
PU1XMG-162026-09-06 00:08:43-22.81111-43.2147395°51km/h2762m7.7m/s10.0°C79.5%731.6hPa0V00:00:0000:00:0000:00:00
PU1XMG-162026-09-06 00:08:37-22.81106-43.2156090°49km/h2726m5.3m/s10.3°C78.8%734.7hPa0V00:00:0000:00:0000:00:00
PU1XMG-162026-09-06 00:08:32-22.81112-43.2165284°51km/h2690m5.5m/s10.5°C78.3%737.7hPa0V00:00:0000:00:0000:00:00
PU1XMG-162026-09-06 00:08:27-22.81112-43.2172192°47km/h2663m7.7m/s10.8°C77.6%740.0hPa0V00:00:0000:00:0000:00:00
PU1XMG-162026-09-06 00:08:20-22.81110-43.2180295°42km/h2628m5.1m/s11.1°C77.0%743.4hPa0V00:00:0000:00:0000:00:00
PU1XMG-162026-09-06 00:08:14-22.81105-43.2187689°47km/h2593m5.9m/s11.5°C75.7%746.4hPa0V00:00:0000:00:0000:00:00
PU1XMG-162026-09-06 00:08:08-22.81106-43.2196495°55km/h2557m5.3m/s11.7°C76.3%749.7hPa0V00:00:0000:00:0000:00:00
PU1XMG-162026-09-06 00:08:02-22.81103-43.2205391°53km/h2522m5.4m/s12.0°C75.7%752.8hPa0V00:00:0000:00:0000:00:00
PU1XMG-162026-09-06 00:07:57-22.81093-43.2214297°51km/h2485m6.7m/s12.3°C75.0%756.2hPa0V00:00:0000:00:0000:00:00
PU1XMG-162026-09-06 00:07:51-22.81085-43.2221691°58km/h2455m4.8m/s12.4°C74.7%758.7hPa0V00:00:0000:00:0000:00:00
PU1XMG-162026-09-06 00:07:45-22.81085-43.2229891°55km/h2422m5.4m/s12.7°C72.7%761.8hPa0V00:00:0000:00:0000:00:00
PU1XMG-162026-09-06 00:07:39-22.81073-43.22397101°58km/h2391m6.1m/s13.0°C71.1%764.5hPa0V00:00:0000:00:0000:00:00
PU1XMG-162026-09-06 00:07:34-22.81060-43.22471101°57km/h2365m6.5m/s13.1°C73.1%766.8hPa0V00:00:0000:00:0000:00:00
PU1XMG-162026-09-06 00:07:27-22.81042-43.22556103°44km/h2325m4.0m/s13.4°C72.8%770.5hPa0V00:00:0000:00:0000:00:00
PU1XMG-162026-09-06 00:07:21-22.81031-43.22635100°51km/h2295m4.9m/s13.6°C73.0%773.4hPa0V00:00:0000:00:0000:00:00
PU1XMG-162026-09-06 00:07:10-22.80992-43.22783103°49km/h2235m4.3m/s13.9°C74.5%779.0hPa0V00:00:0000:00:0000:00:00
PU1XMG-162026-09-06 00:07:05-22.80973-43.22856108°55km/h2208m4.6m/s14.0°C72.9%781.3hPa0V00:00:0000:00:0000:00:00
PU1XMG-162026-09-06 00:06:59-22.80949-43.22943108°47km/h2177m5.5m/s14.3°C71.4%784.1hPa0V00:00:0000:00:0000:00:00
PU1XMG-162026-09-06 00:06:54-22.80943-43.2301497°58km/h2152m5.7m/s14.5°C70.4%786.3hPa0V00:00:0000:00:0000:00:00
PU1XMG-162026-09-06 00:06:49-22.80928-43.23085104°53km/h2126m6.6m/s14.6°C70.5%788.8hPa0V00:00:0000:00:0000:00:00
PU1XMG-162026-09-06 00:06:44-22.80911-43.2316098°53km/h2101m6.0m/s14.7°C69.9%791.3hPa0V00:00:0000:00:0000:00:00
PU1XMG-162026-09-06 00:06:38-22.80895-43.23245101°49km/h2070m6.3m/s14.9°C69.8%794.2hPa0V00:00:0000:00:0000:00:00
PU1XMG-162026-09-06 00:06:32-22.80882-43.23326102°62km/h2035m4.0m/s14.9°C72.1%797.4hPa0V00:00:0000:00:0000:00:00
PU1XMG-162026-09-06 00:06:26-22.80866-43.23416103°55km/h2000m6.3m/s15.2°C71.2%800.7hPa0V00:00:0000:00:0000:00:00
PU1XMG-162026-09-06 00:06:21-22.80855-43.23499102°53km/h1965m5.6m/s15.3°C71.9%803.8hPa0V00:00:0000:00:0000:00:00
PU1XMG-162026-09-06 00:06:15-22.80845-43.23574101°58km/h1938m5.0m/s15.3°C73.2%806.5hPa0V00:00:0000:00:0000:00:00
PU1XMG-162026-09-06 00:06:12-22.80833-43.2364798°57km/h1912m5.2m/s14.8°C76.8%809.1hPa0V00:00:0000:00:0000:00:00
PU1XMG-162026-09-06 00:06:06-22.80821-43.23718101°47km/h1886m4.6m/s14.9°C77.1%811.5hPa0V00:00:0000:00:0000:00:00
PU1XMG-162026-09-06 00:05:59-22.80806-43.2378494°42km/h1850m4.7m/s15.2°C76.0%814.8hPa0V00:00:0000:00:0000:00:00
PU1XMG-162026-09-06 00:05:54-22.80793-43.23847113°49km/h1826m5.2m/s15.0°C77.4%817.1hPa0V00:00:0000:00:0000:00:00
PU1XMG-162026-09-06 00:05:50-22.80771-43.23906120°44km/h1802m6.1m/s15.1°C77.8%819.5hPa0V00:00:0000:00:0000:00:00
PU1XMG-162026-09-06 00:05:43-22.80742-43.23970126°44km/h1767m4.5m/s15.4°C76.4%822.9hPa0V00:00:0000:00:0000:00:00
PU1XMG-162026-09-06 00:05:39-22.80718-43.24021115°46km/h1742m5.4m/s15.5°C76.4%825.4hPa0V00:00:0000:00:0000:00:00
PU1XMG-162026-09-06 00:05:32-22.80688-43.24085127°44km/h1713m6.6m/s15.6°C76.0%828.4hPa0V00:00:0000:00:0000:00:00
PU1XMG-162026-09-06 00:05:28-22.80665-43.24134113°46km/h1683m4.0m/s15.3°C75.8%831.0hPa0V00:00:0000:00:0000:00:00
PU1XMG-162026-09-06 00:05:23-22.80641-43.24197120°46km/h1650m4.6m/s14.6°C86.2%834.1hPa0V00:00:0000:00:0000:00:00
PU1XMG-162026-09-06 00:05:16-22.80614-43.24246117°38km/h1624m5.6m/s13.9°C99.0%836.8hPa0V00:00:0000:00:0000:00:00
PU1XMG-162026-09-06 00:05:11-22.80603-43.2430887°38km/h1587m6.5m/s14.1°C98.4%840.6hPa0V00:00:0000:00:0000:00:00
PU1XMG-162026-09-06 00:05:06-22.80604-43.2435284°31km/h1560m6.1m/s14.1°C98.7%843.3hPa0V00:00:0000:00:0000:00:00
PU1XMG-162026-09-06 00:05:01-22.80600-43.2440496°31km/h1523m5.6m/s14.3°C98.3%846.8hPa0V00:00:0000:00:0000:00:00
PU1XMG-162026-09-06 00:04:55-22.80596-43.24439100°26km/h1491m7.6m/s14.4°C99.2%849.7hPa0V00:00:0000:00:0000:00:00
PU1XMG-162026-09-06 00:04:49-22.80591-43.2447197°27km/h1464m5.9m/s14.6°C98.3%852.6hPa0V00:00:0000:00:0000:00:00
PU1XMG-162026-09-06 00:04:45-22.80588-43.2450285°26km/h1435m4.5m/s14.8°C96.9%855.8hPa0V00:00:0000:00:0000:00:00
PU1XMG-162026-09-06 00:04:39-22.80590-43.2453584°22km/h1402m6.6m/s15.0°C96.5%858.9hPa0V00:00:0000:00:0000:00:00
PU1XMG-162026-09-06 00:04:33-22.80589-43.2456688°22km/h1376m5.3m/s15.1°C97.4%861.8hPa0V00:00:0000:00:0000:00:00
PU1XMG-162026-09-06 00:04:28-22.80589-43.2460477°24km/h1341m5.2m/s15.3°C96.7%865.1hPa0V00:00:0000:00:0000:00:00
PU1XMG-162026-09-06 00:04:22-22.80593-43.2463274°18km/h1313m7.2m/s15.4°C95.8%867.8hPa0V00:00:0000:00:0000:00:00
PU1XMG-162026-09-06 00:04:17-22.80606-43.2466057°22km/h1276m6.6m/s15.8°C93.9%871.7hPa0V00:00:0000:00:0000:00:00
PU1XMG-162026-09-06 00:04:11-22.80617-43.2467730°16km/h1247m6.6m/s16.0°C92.8%874.7hPa0V00:00:0000:00:0000:00:00
PU1XMG-162026-09-06 00:04:06-22.80632-43.2469664°20km/h1209m6.0m/s16.5°C90.7%878.5hPa0V00:00:0000:00:0000:00:00
PU1XMG-162026-09-06 00:04:00-22.80637-43.2471243°4km/h1176m7.1m/s16.8°C89.3%882.1hPa0V00:00:0000:00:0000:00:00
PU1XMG-162026-09-06 00:03:56-22.80641-43.2472452°4km/h1138m6.0m/s17.1°C88.0%886.1hPa0V00:00:0000:00:0000:00:00
PU1XMG-162026-09-06 00:03:49-22.80644-43.2473259°5km/h1106m6.6m/s17.3°C87.2%889.5hPa0V00:00:0000:00:0000:00:00
PU1XMG-162026-09-06 00:03:44-22.80643-43.24742133°5km/h1067m6.7m/s17.6°C86.3%893.3hPa0V00:00:0000:00:0000:00:00
PU1XMG-162026-09-06 00:03:39-22.80637-43.2475199°2km/h1031m8.1m/s17.8°C85.5%896.8hPa0V00:00:0000:00:0000:00:00
PU1XMG-162026-09-06 00:03:33-22.80641-43.2475610°2km/h999m6.0m/s18.1°C84.6%900.2hPa0V00:00:0000:00:0000:00:00
PU1XMG-162026-09-06 00:03:27-22.80645-43.2476012°5km/h963m5.8m/s18.4°C83.5%904.2hPa0V00:00:0000:00:0000:00:00
PU1XMG-162026-09-06 00:03:24-22.80651-43.2477060°5km/h928m8.3m/s18.7°C0%907.6hPa0V00:00:0000:00:0000:00:00
PU1XMG-162026-09-06 00:03:21-22.80659-43.2476666°7km/h889m6.7m/s19.0°C0%912.0hPa0V00:00:0000:00:0000:00:00
PU1XMG-162026-09-06 00:03:16-22.80660-43.247710km/h852m7.0m/s0°C0%915.9hPa0V00:00:0000:00:0000:00:00
PU1XMG-162026-09-06 00:03:13-22.80669-43.247694km/h817m6.8m/s0°C0%919.8hPa0V00:00:0000:00:0000:00:00
PU1XMG-162026-09-06 00:03:02-22.80684-43.24772355°2km/h758m5.8m/s0°C0%0hPa0V00:00:0000:00:0000:00:00
PU1XMG-162026-09-06 00:02:58-22.80690-43.247737km/h728m7.4m/s0°C0%0hPa0V00:00:0000:00:0000:00:00
PU1XMG-162026-09-06 00:02:53-22.80705-43.2477719°9km/h693m7.1m/s0°C0%0hPa0V00:00:0000:00:0000:00:00
PU1XMG-162026-09-06 00:02:49-22.80720-43.2478347°5km/h667m5.4m/s0°C0%0hPa0V00:00:0000:00:0000:00:00


GPX KML Map

© wettersonde.net (DO2JMG) - 2026  -  -